San Antonio International Airport
KSAT : now visible

Airfield :











YOU CAN JOIN US ON...

 
LOGIN :

Register | Disclaimer

   EN    FR    IT 

 









Legend :    VFR   Marginal VFR   IFR   Intensive IFR   Very Intensive IFR
Visi :
Ceiling :
>= 8 km
>= 3000ft
5 to 8 km
1000 to 3000 ft
1500m to 5 km
500 to 1000 ft
800 to 1500m
200 to 500 ft
< 800m
< 200 ft
Symbols :   Thunderstorms  Fog  Heavy snow  Heavy precipitations  Wind > 20 kt






- Airport Elevation : 809 ft
- IATA code : SAT


KSAT - San Antonio International

CURRENT METAR :
  • 282151Z 03013G27KT 10SM BKN250 14/M02 A3021 RMK AO2 PK WND 03030/2138 SLP219 T01441022

EXPIRED METARs :
  • 282051Z 02017G26KT 10SM BKN250 16/M02 A3020 RMK AO2 PK WND 03031/2015 SLP213 T01561017 53005
  • 281951Z 02018G33KT 10SM BKN250 16/M02 A3020 RMK AO2 PK WND 01036/1853 SLP213 T01561022
  • 281851Z 01020G34KT 10SM BKN250 15/M02 A3018 RMK AO2 PK WND 35035/1807 SLP207 T01501017
  • 281751Z 36018G34KT 10SM BKN250 15/M01 A3019 RMK AO2 PK WND 01037/1719 SLP208 T01501006 10217 20133 51034

TAF KSAT
Valid from the 28 at 21:00 until the 01 at 00:00 UTC


282103Z 2821/2924 02017G27KT P6SM BKN250
FM282300 02019KT P6SM OVC250
FM290300 03011KT P6SM OVC250
FM291900 06007KT P6SM OVC060
KZHU FIR / North America



MET'MAP, your aeronautical weather chart ! - Copyright ORBIFLY December 2007 - Disclaimer

ORBIFLY MET'MAP TEAM :

Programming & Development : Alexandra Zaïnal
Original concept : Baudouin d'Aumeries
Technical & hardware support : Manuel Goepfert
Assistance : Marc-Olivier Méhu




SOURCES & CREDITS :

   NOAA       Earth
Advisory